Flugplatz Merseburg

Für EDAM sind keine METAR/TAF Berichte vorhanden.
Es werden die Flugwettermeldungen vom Flugplatz Leipzig Halle in 21 km Entfernung angezeigt.

Bericht für EDDP

vom 18.07. um 00:20 UTC

Wind 4 kt aus 160°

Sichtweite 10 km oder mehr

gute Sicht, keine Wolken < 5000 ft, keine CB, keine Wettererscheinungen (CAVOK)

Temperatur 14.0°C

Taupunkt 10.0°C

Luftfeuchtigkeit 77%

Luftdruck 1013 hPa

keine wesentliche Wetteränderung innerhalb den nächsten 2 Stunden zu erwarten

EDDP 180020Z 16004KT 130V200 CAVOK 14/10 Q1013 NOSIG

Prognose für EDDP

vom 17.07. um 00:00 UTC

Zwischen 00:00 UTC und 00:00 UTC

variable Windrichtung mit 3 kt

Sichtweite 10 km oder mehr

keine signifikanten Wettererscheinungen

keine Wolken

TAF EDDP 172300Z 1800/1824 VRB03KT CAVOK
Impressum